createdAt,value
2023-05-23T00:01:25.573Z,97741.78
2023-05-23T00:05:03.977Z,97732.94
2023-05-23T00:08:24.893Z,97740.34
2023-05-23T00:11:48.898Z,97733.94
2023-05-23T00:15:12.568Z,97736.03
2023-05-23T00:18:33.586Z,97730.69
2023-05-23T00:22:10.581Z,97741.72
2023-05-23T00:25:37.584Z,97726.94
2023-05-23T00:28:57.791Z,97730.22
2023-05-23T00:32:10.894Z,97727.31
2023-05-23T00:35:18.235Z,97726.91
2023-05-23T00:38:24.195Z,97726.88
2023-05-23T00:41:31.003Z,97732.44
2023-05-23T00:44:39.565Z,97733.88
2023-05-23T00:47:48.398Z,97720.72
2023-05-23T00:51:08.233Z,97727.28
2023-05-23T00:54:37.080Z,97719.41
2023-05-23T00:58:01.142Z,97726.03
2023-05-23T01:01:26.242Z,97732.63
2023-05-23T01:04:56.068Z,97725.22
2023-05-23T01:08:19.006Z,97717.81
2023-05-23T01:11:43.554Z,97716.56
2023-05-23T01:15:18.633Z,97715.28
2023-05-23T01:18:42.519Z,97721.44
2023-05-23T01:21:58.453Z,97724.50
2023-05-23T01:25:26.757Z,97720.19
2023-05-23T01:28:43.071Z,97715.69
2023-05-23T01:32:09.259Z,97706.72
2023-05-23T01:35:31.543Z,97717.81
2023-05-23T01:38:52.444Z,97710.25
2023-05-23T01:42:13.923Z,97707.00
2023-05-23T01:45:38.876Z,97708.28
2023-05-23T01:48:49.231Z,97708.16
2023-05-23T01:51:55.555Z,97704.88
2023-05-23T01:55:04.225Z,97707.41
2023-05-23T01:58:11.743Z,97706.13
2023-05-23T02:01:21.910Z,97705.19
2023-05-23T02:04:27.794Z,97700.78
2023-05-23T02:07:36.721Z,97702.00
2023-05-23T02:10:57.638Z,97698.78
2023-05-23T02:14:18.863Z,97697.81
2023-05-23T02:17:43.374Z,97697.00
2023-05-23T02:21:04.613Z,97694.16
2023-05-23T02:24:25.467Z,97688.19
2023-05-23T02:27:46.406Z,97694.09
2023-05-23T02:31:09.421Z,97695.50
2023-05-23T02:34:33.108Z,97693.03
2023-05-23T02:37:53.930Z,97696.91
2023-05-23T02:41:15.047Z,97692.53
2023-05-23T02:44:36.025Z,97685.13
2023-05-23T02:47:57.088Z,97688.81
2023-05-23T02:51:07.867Z,97688.38
2023-05-23T02:54:13.834Z,97689.63
2023-05-23T02:57:20.811Z,97691.28
2023-05-23T03:00:26.778Z,97691.47
2023-05-23T03:03:36.857Z,97691.78
2023-05-23T03:06:45.899Z,97686.47
2023-05-23T03:09:52.808Z,97690.78
2023-05-23T03:12:58.727Z,97686.09
2023-05-23T03:16:05.991Z,97677.94
2023-05-23T03:19:12.120Z,97680.59
2023-05-23T03:22:21.626Z,97684.97
2023-05-23T03:25:27.746Z,97680.28
2023-05-23T03:28:35.006Z,97679.69
2023-05-23T03:31:41.145Z,97672.81
2023-05-23T03:34:48.031Z,97673.31
2023-05-23T03:37:56.777Z,97667.25
2023-05-23T03:41:03.685Z,97673.53
2023-05-23T03:44:10.423Z,97671.31
2023-05-23T03:47:17.198Z,97672.19
2023-05-23T03:50:26.679Z,97665.25
2023-05-23T03:53:36.752Z,97665.91
2023-05-23T03:56:43.851Z,97663.97
2023-05-23T03:59:50.906Z,97667.44
2023-05-23T04:02:57.737Z,97669.22
2023-05-23T04:06:05.279Z,97669.34
2023-05-23T04:09:14.744Z,97671.56
2023-05-23T04:12:24.596Z,97667.41
2023-05-23T04:15:48.660Z,97669.50
2023-05-23T04:19:10.058Z,97666.34
2023-05-23T04:22:31.051Z,97665.69
2023-05-23T04:25:54.864Z,97663.06
2023-05-23T04:29:19.261Z,97667.22
2023-05-23T04:32:40.548Z,97668.97
2023-05-23T04:36:01.967Z,97667.25
2023-05-23T04:39:26.617Z,97661.44
2023-05-23T04:43:09.700Z,97665.94
2023-05-23T04:46:42.605Z,97664.22
2023-05-23T04:50:25.238Z,97653.53
2023-05-23T04:53:46.194Z,97666.13
2023-05-23T04:57:07.576Z,97659.75
2023-05-23T05:00:31.973Z,97657.31
2023-05-23T05:03:55.005Z,97661.22
2023-05-23T05:07:16.544Z,97659.53
2023-05-23T05:10:44.705Z,97656.47
2023-05-23T05:14:19.552Z,97657.66
2023-05-23T05:17:43.525Z,97650.44
2023-05-23T05:21:08.489Z,97648.06
2023-05-23T05:24:32.104Z,97641.09
2023-05-23T05:27:53.437Z,97637.09
2023-05-23T05:31:05.578Z,97644.31
2023-05-23T05:34:17.175Z,97641.75
2023-05-23T05:37:25.198Z,97645.69
2023-05-23T05:40:31.305Z,97645.34
2023-05-23T05:43:38.108Z,97651.59
2023-05-23T05:46:44.200Z,97645.97
2023-05-23T05:50:10.984Z,97637.88
2023-05-23T05:53:32.190Z,97643.03
2023-05-23T05:56:53.473Z,97643.84
2023-05-23T06:00:19.427Z,97631.06
2023-05-23T06:03:40.668Z,97640.94
2023-05-23T06:07:04.313Z,97633.56
2023-05-23T06:10:13.424Z,97640.06
2023-05-23T06:13:19.548Z,97633.97
2023-05-23T06:16:31.465Z,97640.09
2023-05-23T06:19:39.051Z,97634.34
2023-05-23T06:22:48.637Z,97643.34
2023-05-23T06:25:56.630Z,97633.66
2023-05-23T06:29:17.527Z,97628.91
2023-05-23T06:32:38.495Z,97621.16
2023-05-23T06:36:00.608Z,97631.16
2023-05-23T06:39:28.564Z,97619.47
2023-05-23T06:42:49.748Z,97625.78
2023-05-23T06:46:19.764Z,97619.13
2023-05-23T06:49:26.193Z,97614.50
2023-05-23T06:52:32.876Z,97613.06
2023-05-23T06:55:42.980Z,97614.56
2023-05-23T06:58:53.025Z,97610.81
2023-05-23T07:01:59.154Z,97614.28
2023-05-23T07:05:07.160Z,97612.09
2023-05-23T07:08:39.305Z,97599.38
2023-05-23T07:11:53.663Z,97601.84
2023-05-23T07:15:00.382Z,97606.06
2023-05-23T07:18:09.384Z,97591.28
2023-05-23T07:21:15.611Z,97590.72
2023-05-23T07:24:23.902Z,97595.97
2023-05-23T07:27:36.600Z,97590.97
2023-05-23T07:30:45.104Z,97592.50
2023-05-23T07:33:55.401Z,97585.75
2023-05-23T07:37:10.376Z,97585.91
2023-05-23T07:40:21.837Z,97586.63
2023-05-23T07:43:31.330Z,97585.13
2023-05-23T07:46:37.396Z,97593.88
2023-05-23T07:49:44.911Z,97594.47
2023-05-23T07:52:52.321Z,97582.66
2023-05-23T07:56:05.268Z,97588.69
2023-05-23T07:59:18.663Z,97586.03
2023-05-23T08:02:29.360Z,97578.88
2023-05-23T08:05:36.381Z,97594.25
2023-05-23T08:08:44.064Z,97579.09
2023-05-23T08:11:50.596Z,97588.09
2023-05-23T08:15:01.010Z,97579.50
2023-05-23T08:18:19.269Z,97584.59
2023-05-23T08:21:27.391Z,97581.41
2023-05-23T08:24:34.571Z,97582.31
2023-05-23T08:27:45.106Z,97587.06
2023-05-23T08:31:13.503Z,97584.75
2023-05-23T08:34:20.514Z,97567.19
2023-05-23T08:37:27.617Z,97573.13
2023-05-23T08:40:54.614Z,97568.78
2023-05-23T08:44:17.979Z,97569.25
2023-05-23T08:47:50.993Z,97571.69
2023-05-23T08:51:20.324Z,97571.22
2023-05-23T08:54:29.849Z,97562.56
2023-05-23T08:57:37.497Z,97565.59
2023-05-23T09:01:00.203Z,97566.09
2023-05-23T09:04:16.023Z,97566.78
2023-05-23T09:07:37.530Z,97567.91
2023-05-23T09:10:44.830Z,97573.63
2023-05-23T09:13:53.754Z,97582.66
2023-05-23T09:17:22.878Z,97570.69
2023-05-23T09:20:36.555Z,97568.00
2023-05-23T09:23:48.581Z,97571.16
2023-05-23T09:26:56.560Z,97566.47
2023-05-23T09:30:18.716Z,97570.03
2023-05-23T09:33:27.530Z,97569.97
2023-05-23T09:36:37.923Z,97566.75
2023-05-23T09:39:51.312Z,97572.97
2023-05-23T09:43:12.668Z,97559.41
2023-05-23T09:46:19.985Z,97557.69
2023-05-23T09:49:26.146Z,97557.25
2023-05-23T09:52:41.382Z,97558.53
2023-05-23T09:55:47.395Z,97548.31
2023-05-23T09:58:57.249Z,97550.84
2023-05-23T10:02:09.935Z,97549.50
2023-05-23T10:05:36.618Z,97540.25
2023-05-23T10:08:52.361Z,97543.09
2023-05-23T10:12:47.188Z,97534.66
2023-05-23T10:15:54.870Z,97523.66
2023-05-23T10:19:12.094Z,97522.94
2023-05-23T10:22:26.590Z,97524.44
2023-05-23T10:25:38.488Z,97531.38
2023-05-23T10:28:46.007Z,97522.72
2023-05-23T10:31:54.977Z,97523.31
2023-05-23T10:35:11.458Z,97513.28
2023-05-23T10:38:39.081Z,97513.91
2023-05-23T10:41:59.533Z,97516.19
2023-05-23T10:45:21.103Z,97513.53
2023-05-23T10:48:45.008Z,97514.63
2023-05-23T10:51:54.248Z,97508.03
2023-05-23T10:55:00.253Z,97518.53
2023-05-23T10:58:20.834Z,97501.25
2023-05-23T11:01:27.970Z,97513.91
2023-05-23T11:04:35.213Z,97505.09
2023-05-23T11:07:41.141Z,97508.16
2023-05-23T11:11:04.084Z,97496.13
2023-05-23T11:14:12.811Z,97498.75
2023-05-23T11:17:35.444Z,97491.22
2023-05-23T11:20:42.146Z,97487.16
2023-05-23T11:23:49.224Z,97479.97
2023-05-23T11:27:11.018Z,97483.97
2023-05-23T11:30:24.015Z,97479.78
2023-05-23T11:33:42.090Z,97477.75
2023-05-23T11:36:55.912Z,97470.44
2023-05-23T11:40:09.135Z,97464.97
2023-05-23T11:43:36.737Z,97459.28
2023-05-23T11:47:03.842Z,97458.13
2023-05-23T11:50:12.651Z,97470.41
2023-05-23T11:53:22.077Z,97465.56
2023-05-23T11:56:29.309Z,97472.31
2023-05-23T11:59:35.534Z,97475.50
2023-05-23T12:02:50.316Z,97467.50
2023-05-23T12:06:14.251Z,97467.69
2023-05-23T12:09:35.608Z,97470.81
2023-05-23T12:12:57.197Z,97519.16
2023-05-23T12:16:20.081Z,97522.03
2023-05-23T12:19:48.824Z,97502.00
2023-05-23T12:23:10.696Z,97505.50
2023-05-23T12:26:18.350Z,97525.25
2023-05-23T12:29:34.841Z,97515.13
2023-05-23T12:32:46.447Z,97527.78
2023-05-23T12:35:56.997Z,97527.59
2023-05-23T12:39:07.985Z,97525.28
2023-05-23T12:42:15.747Z,97521.22
2023-05-23T12:45:25.904Z,97514.34
2023-05-23T12:48:56.599Z,97505.28
2023-05-23T12:52:06.062Z,97516.44
2023-05-23T12:55:13.861Z,97514.84
2023-05-23T12:58:20.541Z,97510.09
2023-05-23T13:01:26.766Z,97510.22
2023-05-23T13:04:33.639Z,97517.22
2023-05-23T13:07:59.776Z,97511.63
2023-05-23T13:11:07.309Z,97511.84
2023-05-23T13:14:16.462Z,97508.63
2023-05-23T13:17:23.535Z,97511.16
2023-05-23T13:20:30.999Z,97497.56
2023-05-23T13:23:41.188Z,97496.53
2023-05-23T13:26:47.347Z,97498.56
2023-05-23T13:29:54.243Z,97499.41
2023-05-23T13:33:00.534Z,97503.63
2023-05-23T13:36:10.095Z,97494.69
2023-05-23T13:39:19.919Z,97498.38
2023-05-23T13:42:27.370Z,97503.06
2023-05-23T13:45:34.346Z,97500.09
2023-05-23T13:48:41.262Z,97493.91
2023-05-23T13:51:47.400Z,97497.44
2023-05-23T13:55:12.381Z,97498.25
2023-05-23T13:58:33.421Z,97506.16
2023-05-23T14:01:40.260Z,97505.63
2023-05-23T14:04:46.337Z,97508.28
2023-05-23T14:07:55.281Z,97513.66
2023-05-23T14:11:05.677Z,97513.06
2023-05-23T14:14:12.879Z,97535.56
2023-05-23T14:17:19.270Z,97534.88
2023-05-23T14:20:26.715Z,97533.13
2023-05-23T14:23:32.814Z,97521.34
2023-05-23T14:26:42.360Z,97516.09
2023-05-23T14:29:49.274Z,97524.00
2023-05-23T14:32:56.239Z,97521.91
2023-05-23T14:36:05.150Z,97522.88
2023-05-23T14:39:11.989Z,97520.75
2023-05-23T14:42:20.531Z,97522.09
2023-05-23T14:45:27.747Z,97514.00
2023-05-23T14:48:33.906Z,97513.44
2023-05-23T14:51:47.526Z,97512.25
2023-05-23T14:55:04.133Z,97499.34
2023-05-23T14:58:28.094Z,97501.19
2023-05-23T15:01:37.284Z,97493.97
2023-05-23T15:04:45.055Z,97504.22
2023-05-23T15:07:52.208Z,97497.56
2023-05-23T15:11:01.281Z,97501.41
2023-05-23T15:14:32.493Z,97512.81
2023-05-23T15:17:39.233Z,97517.94
2023-05-23T15:20:46.578Z,97510.91
2023-05-23T15:23:52.572Z,97503.91
2023-05-23T15:27:19.441Z,97508.34
2023-05-23T15:30:29.460Z,97507.41
2023-05-23T15:33:36.323Z,97519.34
2023-05-23T15:36:57.250Z,97522.16
2023-05-23T15:40:04.416Z,97525.44
2023-05-23T15:43:10.356Z,97519.56
2023-05-23T15:46:19.824Z,97520.31
2023-05-23T15:49:27.261Z,97513.88
2023-05-23T15:52:35.007Z,97525.19
2023-05-23T15:55:45.260Z,97521.47
2023-05-23T15:58:52.320Z,97517.16
2023-05-23T16:02:03.377Z,97510.09
2023-05-23T16:05:11.407Z,97504.09
2023-05-23T16:08:17.448Z,97507.94
2023-05-23T16:11:26.711Z,97497.34
2023-05-23T16:14:49.267Z,97508.19
2023-05-23T16:18:21.223Z,97507.38
2023-05-23T16:21:51.601Z,97504.72
2023-05-23T16:25:14.324Z,97502.28
2023-05-23T16:28:35.508Z,97512.59
2023-05-23T16:31:56.498Z,97500.59
2023-05-23T16:35:20.250Z,97502.38
2023-05-23T16:38:41.257Z,97506.38
2023-05-23T16:42:02.379Z,97502.81
2023-05-23T16:45:23.603Z,97503.66
2023-05-23T16:48:44.607Z,97495.91
2023-05-23T16:51:54.789Z,97495.75
2023-05-23T16:55:01.784Z,97497.88
2023-05-23T16:58:17.002Z,97503.38
2023-05-23T17:01:27.910Z,97507.72
2023-05-23T17:04:35.396Z,97508.84
2023-05-23T17:07:44.148Z,97521.22
2023-05-23T17:11:06.419Z,97514.09
2023-05-23T17:14:27.753Z,97519.09
2023-05-23T17:17:49.263Z,97520.69
2023-05-23T17:21:10.251Z,97523.69
2023-05-23T17:24:33.907Z,97525.81
2023-05-23T17:27:56.180Z,97525.88
2023-05-23T17:31:28.929Z,97532.59
2023-05-23T17:34:51.654Z,97526.34
2023-05-23T17:38:14.674Z,97536.97
2023-05-23T17:41:38.329Z,97535.50
2023-05-23T17:44:46.621Z,97534.38
2023-05-23T17:47:53.583Z,97535.91
2023-05-23T17:51:00.545Z,97538.91
2023-05-23T17:54:07.376Z,97543.56
2023-05-23T17:57:19.990Z,97533.84
2023-05-23T18:00:26.251Z,97541.00
2023-05-23T18:03:42.778Z,97532.75
2023-05-23T18:07:05.092Z,97537.31
2023-05-23T18:10:26.211Z,97539.19
2023-05-23T18:13:49.753Z,97534.06
2023-05-23T18:17:13.216Z,97538.53
2023-05-23T18:20:34.272Z,97538.53
2023-05-23T18:23:55.125Z,97542.09
2023-05-23T18:27:16.270Z,97547.72
2023-05-23T18:30:40.139Z,97554.25
2023-05-23T18:34:04.840Z,97563.75
2023-05-23T18:37:25.842Z,97565.72
2023-05-23T18:40:47.338Z,97577.97
2023-05-23T18:44:08.227Z,97586.34
2023-05-23T18:47:32.287Z,97585.75
2023-05-23T18:50:53.260Z,97591.88
2023-05-23T18:54:14.138Z,97585.50
2023-05-23T18:57:35.176Z,97597.38
2023-05-23T19:00:56.059Z,97597.25
2023-05-23T19:04:22.509Z,97600.81
2023-05-23T19:07:43.702Z,97609.50
2023-05-23T19:10:51.264Z,97610.47
2023-05-23T19:13:57.508Z,97612.34
2023-05-23T19:17:07.777Z,97602.88
2023-05-23T19:20:20.364Z,97611.69
2023-05-23T19:23:28.399Z,97616.16
2023-05-23T19:26:34.592Z,97610.78
2023-05-23T19:29:42.667Z,97617.66
2023-05-23T19:33:10.307Z,97616.50
2023-05-23T19:36:36.956Z,97618.38
2023-05-23T19:40:01.033Z,97623.44
2023-05-23T19:43:22.087Z,97620.75
2023-05-23T19:46:43.166Z,97623.44
2023-05-23T19:50:04.198Z,97629.75
2023-05-23T19:53:27.730Z,97618.19
2023-05-23T19:56:36.212Z,97620.69
2023-05-23T19:59:42.570Z,97627.16
2023-05-23T20:02:49.401Z,97624.81
2023-05-23T20:05:55.366Z,97632.63
2023-05-23T20:09:04.823Z,97629.66
2023-05-23T20:12:11.939Z,97624.66
2023-05-23T20:15:27.654Z,97624.56
2023-05-23T20:18:48.065Z,97624.44
2023-05-23T20:22:09.276Z,97634.25
2023-05-23T20:25:34.062Z,97633.56
2023-05-23T20:28:55.119Z,97636.50
2023-05-23T20:32:20.779Z,97645.63
2023-05-23T20:35:48.534Z,97646.06
2023-05-23T20:39:09.542Z,97646.88
2023-05-23T20:42:36.667Z,97647.69
2023-05-23T20:45:58.211Z,97653.53
2023-05-23T20:49:19.417Z,97651.78
2023-05-23T20:52:43.187Z,97659.03
2023-05-23T20:56:10.502Z,97665.13
2023-05-23T20:59:34.178Z,97662.66
2023-05-23T21:02:55.226Z,97668.50
2023-05-23T21:06:16.535Z,97666.63
2023-05-23T21:09:37.696Z,97667.31
2023-05-23T21:13:07.959Z,97665.97
2023-05-23T21:16:33.318Z,97672.63
2023-05-23T21:19:54.600Z,97673.06
2023-05-23T21:23:01.567Z,97674.84
2023-05-23T21:26:10.935Z,97673.53
2023-05-23T21:29:17.774Z,97674.97
2023-05-23T21:32:26.522Z,97681.66
2023-05-23T21:35:33.303Z,97688.28
2023-05-23T21:38:40.865Z,97685.72
2023-05-23T21:42:01.877Z,97683.28
2023-05-23T21:45:22.902Z,97685.97
2023-05-23T21:48:55.332Z,97689.28
2023-05-23T21:52:16.319Z,97690.41
2023-05-23T21:55:37.246Z,97696.63
2023-05-23T21:58:58.126Z,97693.25
2023-05-23T22:02:20.419Z,97695.81
2023-05-23T22:05:43.921Z,97699.19
2023-05-23T22:09:10.442Z,97700.03
2023-05-23T22:12:31.345Z,97700.03
2023-05-23T22:15:52.433Z,97698.53
2023-05-23T22:19:18.326Z,97687.13
2023-05-23T22:22:41.893Z,97697.91
2023-05-23T22:26:09.326Z,97694.31
2023-05-23T22:29:37.121Z,97696.75
2023-05-23T22:33:05.360Z,97697.91
2023-05-23T22:36:31.576Z,97699.69
2023-05-23T22:39:55.110Z,97695.44
2023-05-23T22:43:16.918Z,97700.84
2023-05-23T22:46:39.841Z,97697.47
2023-05-23T22:50:01.094Z,97697.91
2023-05-23T22:53:22.850Z,97698.75
2023-05-23T22:56:46.444Z,97696.16
2023-05-23T23:00:12.270Z,97691.34
2023-05-23T23:03:33.357Z,97684.94
2023-05-23T23:06:55.092Z,97685.84
2023-05-23T23:10:16.204Z,97683.75
2023-05-23T23:13:39.933Z,97679.31
2023-05-23T23:17:01.203Z,97689.03
2023-05-23T23:20:22.933Z,97691.00
2023-05-23T23:23:44.010Z,97687.25
2023-05-23T23:27:04.957Z,97688.88
2023-05-23T23:30:29.376Z,97681.16
2023-05-23T23:33:51.024Z,97678.41
2023-05-23T23:37:11.947Z,97682.72
2023-05-23T23:40:33.051Z,97689.78
2023-05-23T23:43:56.327Z,97682.25
2023-05-23T23:47:20.115Z,97678.88
2023-05-23T23:50:27.710Z,97670.69
2023-05-23T23:53:33.960Z,97667.41
2023-05-23T23:56:40.806Z,97673.13
2023-05-23T23:59:49.299Z,97672.31
